sensor_id;sensor_type;location;lat;lon;timestamp;P1;durP1;ratioP1;P2;durP2;ratioP2
49962;SDS011;36180;57.678;11.910;2023-04-03T00:01:47;2.97;;;1.30;;
49962;SDS011;36180;57.678;11.910;2023-04-03T00:04:14;3.75;;;1.30;;
49962;SDS011;36180;57.678;11.910;2023-04-03T00:06:43;2.67;;;1.10;;
49962;SDS011;36180;57.678;11.910;2023-04-03T00:09:10;2.88;;;1.08;;
49962;SDS011;36180;57.678;11.910;2023-04-03T00:11:37;5.38;;;1.55;;
49962;SDS011;36180;57.678;11.910;2023-04-03T00:14:04;4.60;;;1.33;;
49962;SDS011;36180;57.678;11.910;2023-04-03T00:16:32;3.33;;;1.33;;
49962;SDS011;36180;57.678;11.910;2023-04-03T00:18:59;3.25;;;1.33;;
49962;SDS011;36180;57.678;11.910;2023-04-03T00:21:26;1.77;;;1.00;;
49962;SDS011;36180;57.678;11.910;2023-04-03T00:23:54;3.05;;;1.13;;
49962;SDS011;36180;57.678;11.910;2023-04-03T00:26:21;6.00;;;1.20;;
49962;SDS011;36180;57.678;11.910;2023-04-03T00:28:48;2.08;;;1.02;;
49962;SDS011;36180;57.678;11.910;2023-04-03T00:31:16;1.67;;;0.95;;
49962;SDS011;36180;57.678;11.910;2023-04-03T00:33:43;4.97;;;1.30;;
49962;SDS011;36180;57.678;11.910;2023-04-03T00:36:11;2.35;;;1.15;;
49962;SDS011;36180;57.678;11.910;2023-04-03T00:38:39;2.40;;;1.10;;
49962;SDS011;36180;57.678;11.910;2023-04-03T00:41:08;1.40;;;0.82;;
49962;SDS011;36180;57.678;11.910;2023-04-03T00:43:35;4.35;;;1.30;;
49962;SDS011;36180;57.678;11.910;2023-04-03T00:46:02;2.92;;;1.20;;
49962;SDS011;36180;57.678;11.910;2023-04-03T00:48:31;3.55;;;1.10;;
49962;SDS011;36180;57.678;11.910;2023-04-03T00:50:59;2.85;;;1.00;;
49962;SDS011;36180;57.678;11.910;2023-04-03T00:53:27;2.92;;;1.27;;
49962;SDS011;36180;57.678;11.910;2023-04-03T00:55:56;3.75;;;1.23;;
49962;SDS011;36180;57.678;11.910;2023-04-03T00:58:27;1.50;;;1.00;;
49962;SDS011;36180;57.678;11.910;2023-04-03T01:00:59;6.45;;;1.05;;
49962;SDS011;36180;57.678;11.910;2023-04-03T01:03:31;2.78;;;1.20;;
49962;SDS011;36180;57.678;11.910;2023-04-03T01:06:01;3.63;;;1.10;;
49962;SDS011;36180;57.678;11.910;2023-04-03T01:08:29;2.30;;;0.77;;
49962;SDS011;36180;57.678;11.910;2023-04-03T01:10:57;4.05;;;1.00;;
49962;SDS011;36180;57.678;11.910;2023-04-03T01:13:28;3.42;;;0.85;;
49962;SDS011;36180;57.678;11.910;2023-04-03T01:15:56;1.58;;;0.73;;
49962;SDS011;36180;57.678;11.910;2023-04-03T01:18:23;1.35;;;0.73;;
49962;SDS011;36180;57.678;11.910;2023-04-03T01:23:55;2.13;;;0.90;;
49962;SDS011;36180;57.678;11.910;2023-04-03T01:26:25;5.47;;;1.00;;
49962;SDS011;36180;57.678;11.910;2023-04-03T01:28:54;3.20;;;1.00;;
49962;SDS011;36180;57.678;11.910;2023-04-03T01:31:22;3.53;;;0.90;;
49962;SDS011;36180;57.678;11.910;2023-04-03T01:33:54;2.05;;;0.90;;
49962;SDS011;36180;57.678;11.910;2023-04-03T01:36:23;1.58;;;0.80;;
49962;SDS011;36180;57.678;11.910;2023-04-03T01:38:51;0.77;;;0.70;;
49962;SDS011;36180;57.678;11.910;2023-04-03T01:41:19;2.88;;;1.00;;
49962;SDS011;36180;57.678;11.910;2023-04-03T01:43:47;3.72;;;0.90;;
49962;SDS011;36180;57.678;11.910;2023-04-03T01:46:15;2.50;;;1.10;;
49962;SDS011;36180;57.678;11.910;2023-04-03T01:48:42;3.20;;;0.95;;
49962;SDS011;36180;57.678;11.910;2023-04-03T01:51:11;1.85;;;0.70;;
49962;SDS011;36180;57.678;11.910;2023-04-03T01:53:38;3.05;;;1.05;;
49962;SDS011;36180;57.678;11.910;2023-04-03T01:56:06;2.38;;;0.77;;
49962;SDS011;36180;57.678;11.910;2023-04-03T01:58:34;5.00;;;1.10;;
49962;SDS011;36180;57.678;11.910;2023-04-03T02:01:01;1.50;;;0.93;;
49962;SDS011;36180;57.678;11.910;2023-04-03T02:03:28;3.15;;;0.85;;
49962;SDS011;36180;57.678;11.910;2023-04-03T02:05:56;2.35;;;0.85;;
49962;SDS011;36180;57.678;11.910;2023-04-03T02:08:24;2.03;;;0.70;;
49962;SDS011;36180;57.678;11.910;2023-04-03T02:10:51;1.25;;;0.60;;
49962;SDS011;36180;57.678;11.910;2023-04-03T02:13:18;3.20;;;1.00;;
49962;SDS011;36180;57.678;11.910;2023-04-03T02:15:45;4.97;;;1.00;;
49962;SDS011;36180;57.678;11.910;2023-04-03T02:18:16;3.70;;;0.73;;
49962;SDS011;36180;57.678;11.910;2023-04-03T02:20:43;2.97;;;1.10;;
49962;SDS011;36180;57.678;11.910;2023-04-03T02:23:10;1.92;;;0.95;;
49962;SDS011;36180;57.678;11.910;2023-04-03T02:25:39;3.05;;;0.75;;
49962;SDS011;36180;57.678;11.910;2023-04-03T02:28:06;4.15;;;1.27;;
49962;SDS011;36180;57.678;11.910;2023-04-03T02:30:33;3.15;;;0.93;;
49962;SDS011;36180;57.678;11.910;2023-04-03T02:33:00;5.43;;;0.90;;
49962;SDS011;36180;57.678;11.910;2023-04-03T02:35:27;2.70;;;0.95;;
49962;SDS011;36180;57.678;11.910;2023-04-03T02:37:56;5.35;;;1.00;;
49962;SDS011;36180;57.678;11.910;2023-04-03T02:40:24;3.58;;;0.90;;
49962;SDS011;36180;57.678;11.910;2023-04-03T02:42:52;2.10;;;0.93;;
49962;SDS011;36180;57.678;11.910;2023-04-03T02:45:22;3.67;;;0.80;;
49962;SDS011;36180;57.678;11.910;2023-04-03T02:47:49;1.65;;;0.70;;
49962;SDS011;36180;57.678;11.910;2023-04-03T02:50:16;4.03;;;1.17;;
49962;SDS011;36180;57.678;11.910;2023-04-03T02:52:43;1.90;;;0.85;;
49962;SDS011;36180;57.678;11.910;2023-04-03T02:55:12;3.38;;;0.82;;
49962;SDS011;36180;57.678;11.910;2023-04-03T02:57:40;1.10;;;0.70;;
49962;SDS011;36180;57.678;11.910;2023-04-03T03:00:10;1.30;;;0.70;;
49962;SDS011;36180;57.678;11.910;2023-04-03T03:02:38;3.42;;;0.70;;
49962;SDS011;36180;57.678;11.910;2023-04-03T03:05:05;2.78;;;1.02;;
49962;SDS011;36180;57.678;11.910;2023-04-03T03:07:33;2.58;;;1.20;;
49962;SDS011;36180;57.678;11.910;2023-04-03T03:10:00;2.05;;;0.77;;
49962;SDS011;36180;57.678;11.910;2023-04-03T03:12:27;1.67;;;0.95;;
49962;SDS011;36180;57.678;11.910;2023-04-03T03:14:55;2.20;;;0.80;;
49962;SDS011;36180;57.678;11.910;2023-04-03T03:17:23;2.70;;;0.60;;
49962;SDS011;36180;57.678;11.910;2023-04-03T03:19:50;3.28;;;1.00;;
49962;SDS011;36180;57.678;11.910;2023-04-03T03:22:18;5.10;;;0.93;;
49962;SDS011;36180;57.678;11.910;2023-04-03T03:24:45;1.73;;;0.77;;
49962;SDS011;36180;57.678;11.910;2023-04-03T03:27:12;2.38;;;1.00;;
49962;SDS011;36180;57.678;11.910;2023-04-03T03:29:41;1.95;;;0.80;;
49962;SDS011;36180;57.678;11.910;2023-04-03T03:32:09;3.35;;;0.90;;
49962;SDS011;36180;57.678;11.910;2023-04-03T03:34:37;4.93;;;0.90;;
49962;SDS011;36180;57.678;11.910;2023-04-03T03:37:04;4.25;;;1.20;;
49962;SDS011;36180;57.678;11.910;2023-04-03T03:39:31;2.60;;;0.82;;
49962;SDS011;36180;57.678;11.910;2023-04-03T03:41:58;2.25;;;0.82;;
49962;SDS011;36180;57.678;11.910;2023-04-03T03:44:26;1.42;;;0.60;;
49962;SDS011;36180;57.678;11.910;2023-04-03T03:46:54;3.40;;;0.90;;
49962;SDS011;36180;57.678;11.910;2023-04-03T03:49:22;2.65;;;0.82;;
49962;SDS011;36180;57.678;11.910;2023-04-03T03:51:50;1.77;;;0.73;;
49962;SDS011;36180;57.678;11.910;2023-04-03T03:54:17;3.80;;;0.70;;
49962;SDS011;36180;57.678;11.910;2023-04-03T03:56:44;3.92;;;1.15;;
49962;SDS011;36180;57.678;11.910;2023-04-03T03:59:11;2.80;;;0.80;;
49962;SDS011;36180;57.678;11.910;2023-04-03T04:01:40;4.22;;;0.88;;
49962;SDS011;36180;57.678;11.910;2023-04-03T04:04:07;4.45;;;0.80;;
49962;SDS011;36180;57.678;11.910;2023-04-03T04:06:35;3.15;;;0.70;;
49962;SDS011;36180;57.678;11.910;2023-04-03T04:09:06;4.88;;;0.85;;
49962;SDS011;36180;57.678;11.910;2023-04-03T04:11:33;4.05;;;0.75;;
49962;SDS011;36180;57.678;11.910;2023-04-03T04:14:01;3.58;;;0.75;;
49962;SDS011;36180;57.678;11.910;2023-04-03T04:16:29;3.63;;;0.90;;
49962;SDS011;36180;57.678;11.910;2023-04-03T04:19:01;2.53;;;0.88;;
49962;SDS011;36180;57.678;11.910;2023-04-03T04:21:29;2.97;;;0.80;;
49962;SDS011;36180;57.678;11.910;2023-04-03T04:23:56;1.58;;;0.70;;
49962;SDS011;36180;57.678;11.910;2023-04-03T04:26:26;4.28;;;0.82;;
49962;SDS011;36180;57.678;11.910;2023-04-03T04:28:53;6.95;;;0.80;;
49962;SDS011;36180;57.678;11.910;2023-04-03T04:31:20;3.75;;;1.02;;
49962;SDS011;36180;57.678;11.910;2023-04-03T04:33:48;1.80;;;0.95;;
49962;SDS011;36180;57.678;11.910;2023-04-03T04:36:15;10.63;;;1.48;;
49962;SDS011;36180;57.678;11.910;2023-04-03T04:38:44;5.70;;;1.08;;
49962;SDS011;36180;57.678;11.910;2023-04-03T04:41:12;2.15;;;1.00;;
49962;SDS011;36180;57.678;11.910;2023-04-03T04:43:41;6.25;;;1.50;;
49962;SDS011;36180;57.678;11.910;2023-04-03T04:46:09;3.35;;;1.08;;
49962;SDS011;36180;57.678;11.910;2023-04-03T04:48:42;3.83;;;1.40;;
49962;SDS011;36180;57.678;11.910;2023-04-03T04:51:10;7.82;;;1.80;;
49962;SDS011;36180;57.678;11.910;2023-04-03T04:53:38;5.22;;;1.63;;
49962;SDS011;36180;57.678;11.910;2023-04-03T04:56:08;6.88;;;2.08;;
49962;SDS011;36180;57.678;11.910;2023-04-03T04:58:37;7.53;;;2.28;;
49962;SDS011;36180;57.678;11.910;2023-04-03T05:01:06;6.38;;;2.13;;
49962;SDS011;36180;57.678;11.910;2023-04-03T05:03:40;7.63;;;1.90;;
49962;SDS011;36180;57.678;11.910;2023-04-03T05:06:07;6.47;;;2.50;;
49962;SDS011;36180;57.678;11.910;2023-04-03T05:08:36;8.30;;;2.13;;
49962;SDS011;36180;57.678;11.910;2023-04-03T05:11:03;7.20;;;2.10;;
49962;SDS011;36180;57.678;11.910;2023-04-03T05:13:30;5.80;;;1.90;;
49962;SDS011;36180;57.678;11.910;2023-04-03T05:15:58;8.40;;;2.53;;
49962;SDS011;36180;57.678;11.910;2023-04-03T05:18:26;8.65;;;2.28;;
49962;SDS011;36180;57.678;11.910;2023-04-03T05:20:56;6.93;;;1.80;;
49962;SDS011;36180;57.678;11.910;2023-04-03T05:23:25;9.07;;;1.90;;
49962;SDS011;36180;57.678;11.910;2023-04-03T05:25:53;9.40;;;2.17;;
49962;SDS011;36180;57.678;11.910;2023-04-03T05:28:21;6.60;;;2.20;;
49962;SDS011;36180;57.678;11.910;2023-04-03T05:30:52;9.00;;;2.05;;
49962;SDS011;36180;57.678;11.910;2023-04-03T05:33:21;12.73;;;1.83;;
49962;SDS011;36180;57.678;11.910;2023-04-03T05:35:53;8.27;;;2.15;;
49962;SDS011;36180;57.678;11.910;2023-04-03T05:38:25;17.75;;;2.60;;
49962;SDS011;36180;57.678;11.910;2023-04-03T05:40:54;9.95;;;1.92;;
49962;SDS011;36180;57.678;11.910;2023-04-03T05:43:22;9.15;;;1.80;;
49962;SDS011;36180;57.678;11.910;2023-04-03T05:45:50;7.03;;;1.67;;
49962;SDS011;36180;57.678;11.910;2023-04-03T05:48:19;10.77;;;1.50;;
49962;SDS011;36180;57.678;11.910;2023-04-03T05:50:46;10.50;;;2.33;;
49962;SDS011;36180;57.678;11.910;2023-04-03T05:53:21;6.88;;;1.70;;
49962;SDS011;36180;57.678;11.910;2023-04-03T05:55:51;6.53;;;1.75;;
49962;SDS011;36180;57.678;11.910;2023-04-03T05:58:19;11.02;;;1.60;;
49962;SDS011;36180;57.678;11.910;2023-04-03T06:00:48;7.78;;;1.90;;
49962;SDS011;36180;57.678;11.910;2023-04-03T06:03:15;10.98;;;2.03;;
49962;SDS011;36180;57.678;11.910;2023-04-03T06:05:42;9.18;;;2.08;;
49962;SDS011;36180;57.678;11.910;2023-04-03T06:08:11;7.90;;;2.22;;
49962;SDS011;36180;57.678;11.910;2023-04-03T06:10:41;7.30;;;1.90;;
49962;SDS011;36180;57.678;11.910;2023-04-03T06:13:08;9.38;;;2.20;;
49962;SDS011;36180;57.678;11.910;2023-04-03T06:15:35;10.77;;;2.28;;
49962;SDS011;36180;57.678;11.910;2023-04-03T06:18:03;8.63;;;1.70;;
49962;SDS011;36180;57.678;11.910;2023-04-03T06:20:30;7.07;;;1.60;;
49962;SDS011;36180;57.678;11.910;2023-04-03T06:22:58;6.72;;;1.58;;
49962;SDS011;36180;57.678;11.910;2023-04-03T06:25:26;6.65;;;1.75;;
49962;SDS011;36180;57.678;11.910;2023-04-03T06:27:55;7.60;;;1.60;;
49962;SDS011;36180;57.678;11.910;2023-04-03T06:30:22;6.75;;;1.65;;
49962;SDS011;36180;57.678;11.910;2023-04-03T06:32:49;6.53;;;2.15;;
49962;SDS011;36180;57.678;11.910;2023-04-03T06:35:17;6.85;;;1.83;;
49962;SDS011;36180;57.678;11.910;2023-04-03T06:37:44;6.82;;;1.73;;
49962;SDS011;36180;57.678;11.910;2023-04-03T06:40:13;6.93;;;1.45;;
49962;SDS011;36180;57.678;11.910;2023-04-03T06:42:44;17.73;;;2.13;;
49962;SDS011;36180;57.678;11.910;2023-04-03T06:45:13;6.15;;;1.40;;
49962;SDS011;36180;57.678;11.910;2023-04-03T06:47:40;7.95;;;1.50;;
49962;SDS011;36180;57.678;11.910;2023-04-03T06:50:08;6.35;;;1.15;;
49962;SDS011;36180;57.678;11.910;2023-04-03T06:52:36;5.40;;;1.30;;
49962;SDS011;36180;57.678;11.910;2023-04-03T06:55:05;8.73;;;1.40;;
49962;SDS011;36180;57.678;11.910;2023-04-03T06:57:32;7.03;;;1.30;;
49962;SDS011;36180;57.678;11.910;2023-04-03T06:59:59;8.82;;;1.38;;
49962;SDS011;36180;57.678;11.910;2023-04-03T07:02:29;7.07;;;1.20;;
49962;SDS011;36180;57.678;11.910;2023-04-03T07:04:56;6.15;;;1.30;;
49962;SDS011;36180;57.678;11.910;2023-04-03T07:07:24;2.60;;;0.70;;
49962;SDS011;36180;57.678;11.910;2023-04-03T07:09:51;2.10;;;0.80;;
49962;SDS011;36180;57.678;11.910;2023-04-03T07:12:19;4.80;;;0.73;;
49962;SDS011;36180;57.678;11.910;2023-04-03T07:14:46;2.55;;;0.90;;
49962;SDS011;36180;57.678;11.910;2023-04-03T07:17:14;7.93;;;0.95;;
49962;SDS011;36180;57.678;11.910;2023-04-03T07:19:42;4.90;;;0.88;;
49962;SDS011;36180;57.678;11.910;2023-04-03T07:22:09;2.70;;;1.20;;
49962;SDS011;36180;57.678;11.910;2023-04-03T07:24:37;2.72;;;0.70;;
49962;SDS011;36180;57.678;11.910;2023-04-03T07:27:04;2.40;;;0.75;;
49962;SDS011;36180;57.678;11.910;2023-04-03T07:29:33;6.15;;;0.93;;
49962;SDS011;36180;57.678;11.910;2023-04-03T07:32:00;2.97;;;0.60;;
49962;SDS011;36180;57.678;11.910;2023-04-03T07:34:28;4.40;;;0.90;;
49962;SDS011;36180;57.678;11.910;2023-04-03T07:36:57;5.40;;;0.80;;
49962;SDS011;36180;57.678;11.910;2023-04-03T07:39:25;4.60;;;1.10;;
49962;SDS011;36180;57.678;11.910;2023-04-03T07:41:53;4.88;;;1.05;;
49962;SDS011;36180;57.678;11.910;2023-04-03T07:44:21;3.55;;;0.85;;
49962;SDS011;36180;57.678;11.910;2023-04-03T07:46:48;2.90;;;1.00;;
49962;SDS011;36180;57.678;11.910;2023-04-03T07:49:16;1.70;;;0.70;;
49962;SDS011;36180;57.678;11.910;2023-04-03T07:51:43;2.45;;;0.90;;
49962;SDS011;36180;57.678;11.910;2023-04-03T07:54:11;1.42;;;0.80;;
49962;SDS011;36180;57.678;11.910;2023-04-03T07:56:39;12.27;;;1.20;;
49962;SDS011;36180;57.678;11.910;2023-04-03T07:59:08;3.85;;;0.82;;
49962;SDS011;36180;57.678;11.910;2023-04-03T08:01:35;1.58;;;0.65;;
49962;SDS011;36180;57.678;11.910;2023-04-03T08:04:02;3.58;;;0.90;;
49962;SDS011;36180;57.678;11.910;2023-04-03T08:06:30;6.28;;;1.00;;
49962;SDS011;36180;57.678;11.910;2023-04-03T08:09:00;1.88;;;0.70;;
49962;SDS011;36180;57.678;11.910;2023-04-03T08:11:28;6.80;;;2.40;;
49962;SDS011;36180;57.678;11.910;2023-04-03T08:13:56;2.78;;;0.90;;
49962;SDS011;36180;57.678;11.910;2023-04-03T08:16:23;2.90;;;1.00;;
49962;SDS011;36180;57.678;11.910;2023-04-03T08:18:52;6.75;;;0.90;;
49962;SDS011;36180;57.678;11.910;2023-04-03T08:21:19;3.72;;;0.90;;
49962;SDS011;36180;57.678;11.910;2023-04-03T08:23:48;4.88;;;0.95;;
49962;SDS011;36180;57.678;11.910;2023-04-03T08:26:16;1.55;;;0.75;;
49962;SDS011;36180;57.678;11.910;2023-04-03T08:28:48;2.83;;;0.90;;
49962;SDS011;36180;57.678;11.910;2023-04-03T08:31:16;5.10;;;0.90;;
49962;SDS011;36180;57.678;11.910;2023-04-03T08:33:45;2.75;;;0.80;;
49962;SDS011;36180;57.678;11.910;2023-04-03T08:36:19;5.63;;;0.95;;
49962;SDS011;36180;57.678;11.910;2023-04-03T08:38:47;5.80;;;0.93;;
49962;SDS011;36180;57.678;11.910;2023-04-03T08:41:15;5.38;;;0.90;;
49962;SDS011;36180;57.678;11.910;2023-04-03T08:46:26;4.03;;;1.23;;
49962;SDS011;36180;57.678;11.910;2023-04-03T08:49:02;9.60;;;1.40;;
49962;SDS011;36180;57.678;11.910;2023-04-03T08:51:30;12.35;;;1.35;;
49962;SDS011;36180;57.678;11.910;2023-04-03T08:53:59;10.52;;;2.05;;
49962;SDS011;36180;57.678;11.910;2023-04-03T08:56:28;7.72;;;2.10;;
49962;SDS011;36180;57.678;11.910;2023-04-03T08:58:58;6.40;;;1.50;;
49962;SDS011;36180;57.678;11.910;2023-04-03T09:01:27;9.98;;;1.80;;
49962;SDS011;36180;57.678;11.910;2023-04-03T09:04:00;7.22;;;1.55;;
49962;SDS011;36180;57.678;11.910;2023-04-03T09:06:28;11.43;;;1.42;;
49962;SDS011;36180;57.678;11.910;2023-04-03T09:09:01;7.22;;;1.88;;
49962;SDS011;36180;57.678;11.910;2023-04-03T09:11:36;6.88;;;1.42;;
49962;SDS011;36180;57.678;11.910;2023-04-03T09:14:14;11.25;;;1.40;;
49962;SDS011;36180;57.678;11.910;2023-04-03T09:16:46;4.22;;;1.15;;
49962;SDS011;36180;57.678;11.910;2023-04-03T09:19:18;2.22;;;1.33;;
49962;SDS011;36180;57.678;11.910;2023-04-03T09:21:50;12.80;;;1.25;;
49962;SDS011;36180;57.678;11.910;2023-04-03T09:24:18;4.65;;;1.58;;
49962;SDS011;36180;57.678;11.910;2023-04-03T09:26:46;6.88;;;1.27;;
49962;SDS011;36180;57.678;11.910;2023-04-03T09:29:20;6.95;;;0.98;;
49962;SDS011;36180;57.678;11.910;2023-04-03T09:31:49;7.22;;;1.10;;
49962;SDS011;36180;57.678;11.910;2023-04-03T09:34:18;6.55;;;1.02;;
49962;SDS011;36180;57.678;11.910;2023-04-03T09:36:49;7.05;;;1.27;;
49962;SDS011;36180;57.678;11.910;2023-04-03T09:39:18;2.70;;;0.88;;
49962;SDS011;36180;57.678;11.910;2023-04-03T09:41:59;3.13;;;0.50;;
49962;SDS011;36180;57.678;11.910;2023-04-03T09:44:29;2.88;;;0.90;;
49962;SDS011;36180;57.678;11.910;2023-04-03T09:46:58;2.55;;;0.82;;
49962;SDS011;36180;57.678;11.910;2023-04-03T09:49:26;6.18;;;0.93;;
49962;SDS011;36180;57.678;11.910;2023-04-03T09:51:53;4.40;;;0.82;;
49962;SDS011;36180;57.678;11.910;2023-04-03T09:54:24;6.07;;;1.08;;
49962;SDS011;36180;57.678;11.910;2023-04-03T09:56:56;3.03;;;0.80;;
49962;SDS011;36180;57.678;11.910;2023-04-03T09:59:26;4.80;;;0.90;;
49962;SDS011;36180;57.678;11.910;2023-04-03T10:01:58;2.13;;;0.95;;
49962;SDS011;36180;57.678;11.910;2023-04-03T10:04:27;3.65;;;0.77;;
49962;SDS011;36180;57.678;11.910;2023-04-03T10:07:04;6.47;;;1.00;;
49962;SDS011;36180;57.678;11.910;2023-04-03T10:09:59;3.60;;;1.00;;
49962;SDS011;36180;57.678;11.910;2023-04-03T10:12:28;3.95;;;0.68;;
49962;SDS011;36180;57.678;11.910;2023-04-03T10:14:56;2.28;;;0.93;;
49962;SDS011;36180;57.678;11.910;2023-04-03T10:17:29;3.53;;;0.73;;
49962;SDS011;36180;57.678;11.910;2023-04-03T10:20:02;3.78;;;1.10;;
49962;SDS011;36180;57.678;11.910;2023-04-03T10:22:39;2.92;;;1.20;;
49962;SDS011;36180;57.678;11.910;2023-04-03T10:25:12;5.10;;;1.10;;
49962;SDS011;36180;57.678;11.910;2023-04-03T10:30:18;5.40;;;1.02;;
49962;SDS011;36180;57.678;11.910;2023-04-03T10:32:57;7.63;;;0.88;;
49962;SDS011;36180;57.678;11.910;2023-04-03T10:35:33;2.58;;;1.50;;
49962;SDS011;36180;57.678;11.910;2023-04-03T10:38:07;3.17;;;1.10;;
49962;SDS011;36180;57.678;11.910;2023-04-03T10:40:39;3.67;;;0.98;;
49962;SDS011;36180;57.678;11.910;2023-04-03T10:43:14;3.67;;;1.10;;
49962;SDS011;36180;57.678;11.910;2023-04-03T10:45:49;10.95;;;1.13;;
49962;SDS011;36180;57.678;11.910;2023-04-03T10:48:25;4.88;;;1.20;;
49962;SDS011;36180;57.678;11.910;2023-04-03T10:51:13;5.72;;;1.25;;
49962;SDS011;36180;57.678;11.910;2023-04-03T10:53:49;7.07;;;0.90;;
49962;SDS011;36180;57.678;11.910;2023-04-03T10:56:21;4.18;;;1.20;;
49962;SDS011;36180;57.678;11.910;2023-04-03T10:58:53;1.30;;;0.75;;
49962;SDS011;36180;57.678;11.910;2023-04-03T11:01:23;5.05;;;1.25;;
49962;SDS011;36180;57.678;11.910;2023-04-03T11:03:56;4.43;;;1.00;;
49962;SDS011;36180;57.678;11.910;2023-04-03T11:06:24;4.20;;;1.10;;
49962;SDS011;36180;57.678;11.910;2023-04-03T11:08:53;5.15;;;1.00;;
49962;SDS011;36180;57.678;11.910;2023-04-03T11:11:24;4.43;;;1.10;;
49962;SDS011;36180;57.678;11.910;2023-04-03T11:13:54;1.58;;;0.90;;
49962;SDS011;36180;57.678;11.910;2023-04-03T11:16:24;2.58;;;1.20;;
49962;SDS011;36180;57.678;11.910;2023-04-03T11:18:56;4.35;;;0.70;;
49962;SDS011;36180;57.678;11.910;2023-04-03T11:21:26;2.15;;;1.13;;
49962;SDS011;36180;57.678;11.910;2023-04-03T11:23:56;4.63;;;0.80;;
49962;SDS011;36180;57.678;11.910;2023-04-03T11:26:24;2.67;;;0.70;;
49962;SDS011;36180;57.678;11.910;2023-04-03T11:28:56;3.58;;;0.82;;
49962;SDS011;36180;57.678;11.910;2023-04-03T11:31:35;2.08;;;0.70;;
49962;SDS011;36180;57.678;11.910;2023-04-03T11:34:14;2.85;;;0.80;;
49962;SDS011;36180;57.678;11.910;2023-04-03T11:36:48;1.58;;;0.90;;
49962;SDS011;36180;57.678;11.910;2023-04-03T11:39:19;4.40;;;0.90;;
49962;SDS011;36180;57.678;11.910;2023-04-03T11:41:49;5.30;;;0.80;;
49962;SDS011;36180;57.678;11.910;2023-04-03T11:44:28;3.20;;;1.00;;
49962;SDS011;36180;57.678;11.910;2023-04-03T11:46:59;1.33;;;0.55;;
49962;SDS011;36180;57.678;11.910;2023-04-03T11:55:52;1.55;;;0.77;;
49962;SDS011;36180;57.678;11.910;2023-04-03T11:58:30;2.78;;;0.80;;
49962;SDS011;36180;57.678;11.910;2023-04-03T12:01:00;3.20;;;0.60;;
49962;SDS011;36180;57.678;11.910;2023-04-03T12:09:33;2.20;;;0.70;;
49962;SDS011;36180;57.678;11.910;2023-04-03T12:15:26;1.88;;;0.75;;
49962;SDS011;36180;57.678;11.910;2023-04-03T12:21:18;1.58;;;0.73;;
49962;SDS011;36180;57.678;11.910;2023-04-03T12:23:59;3.15;;;0.80;;
49962;SDS011;36180;57.678;11.910;2023-04-03T12:26:30;0.80;;;0.70;;
49962;SDS011;36180;57.678;11.910;2023-04-03T12:29:01;3.50;;;0.55;;
49962;SDS011;36180;57.678;11.910;2023-04-03T12:31:39;3.72;;;0.98;;
49962;SDS011;36180;57.678;11.910;2023-04-03T12:34:16;2.83;;;0.60;;
49962;SDS011;36180;57.678;11.910;2023-04-03T12:36:54;1.48;;;0.77;;
49962;SDS011;36180;57.678;11.910;2023-04-03T12:39:41;2.95;;;0.57;;
49962;SDS011;36180;57.678;11.910;2023-04-03T12:42:18;1.08;;;0.73;;
49962;SDS011;36180;57.678;11.910;2023-04-03T12:44:53;2.33;;;0.95;;
49962;SDS011;36180;57.678;11.910;2023-04-03T12:47:24;4.43;;;0.75;;
49962;SDS011;36180;57.678;11.910;2023-04-03T12:49:54;4.32;;;0.85;;
49962;SDS011;36180;57.678;11.910;2023-04-03T12:52:30;3.20;;;0.88;;
49962;SDS011;36180;57.678;11.910;2023-04-03T12:55:01;2.00;;;0.90;;
49962;SDS011;36180;57.678;11.910;2023-04-03T12:57:30;2.88;;;1.00;;
49962;SDS011;36180;57.678;11.910;2023-04-03T12:59:58;1.92;;;0.80;;
49962;SDS011;36180;57.678;11.910;2023-04-03T13:02:26;5.13;;;1.02;;
49962;SDS011;36180;57.678;11.910;2023-04-03T13:04:55;2.08;;;0.75;;
49962;SDS011;36180;57.678;11.910;2023-04-03T13:07:25;3.58;;;1.10;;
49962;SDS011;36180;57.678;11.910;2023-04-03T13:09:56;6.15;;;0.90;;
49962;SDS011;36180;57.678;11.910;2023-04-03T13:12:26;1.83;;;0.73;;
49962;SDS011;36180;57.678;11.910;2023-04-03T13:14:54;2.80;;;0.80;;
49962;SDS011;36180;57.678;11.910;2023-04-03T13:17:24;2.97;;;0.90;;
49962;SDS011;36180;57.678;11.910;2023-04-03T13:19:53;1.35;;;0.73;;
49962;SDS011;36180;57.678;11.910;2023-04-03T13:22:27;1.42;;;0.85;;
49962;SDS011;36180;57.678;11.910;2023-04-03T13:24:56;1.90;;;0.80;;
49962;SDS011;36180;57.678;11.910;2023-04-03T13:27:27;2.65;;;0.65;;
49962;SDS011;36180;57.678;11.910;2023-04-03T13:29:57;2.22;;;0.90;;
49962;SDS011;36180;57.678;11.910;2023-04-03T13:32:26;4.10;;;0.82;;
49962;SDS011;36180;57.678;11.910;2023-04-03T13:34:54;1.65;;;0.63;;
49962;SDS011;36180;57.678;11.910;2023-04-03T13:37:22;1.00;;;0.50;;
49962;SDS011;36180;57.678;11.910;2023-04-03T13:39:58;4.63;;;0.80;;
49962;SDS011;36180;57.678;11.910;2023-04-03T13:42:30;4.07;;;1.05;;
49962;SDS011;36180;57.678;11.910;2023-04-03T13:45:09;2.38;;;0.80;;
49962;SDS011;36180;57.678;11.910;2023-04-03T13:47:38;4.13;;;1.35;;
49962;SDS011;36180;57.678;11.910;2023-04-03T13:50:15;6.50;;;1.00;;
49962;SDS011;36180;57.678;11.910;2023-04-03T13:52:45;5.57;;;0.70;;
49962;SDS011;36180;57.678;11.910;2023-04-03T13:55:18;3.88;;;0.85;;
49962;SDS011;36180;57.678;11.910;2023-04-03T13:57:53;2.88;;;0.80;;
49962;SDS011;36180;57.678;11.910;2023-04-03T14:00:29;1.85;;;0.73;;
49962;SDS011;36180;57.678;11.910;2023-04-03T14:02:59;2.97;;;0.90;;
49962;SDS011;36180;57.678;11.910;2023-04-03T14:05:26;4.57;;;1.20;;
49962;SDS011;36180;57.678;11.910;2023-04-03T14:07:54;4.70;;;0.90;;
49962;SDS011;36180;57.678;11.910;2023-04-03T14:10:22;6.32;;;1.20;;
49962;SDS011;36180;57.678;11.910;2023-04-03T14:12:49;2.80;;;0.90;;
49962;SDS011;36180;57.678;11.910;2023-04-03T14:15:20;7.47;;;0.80;;
49962;SDS011;36180;57.678;11.910;2023-04-03T14:17:50;13.15;;;1.48;;
49962;SDS011;36180;57.678;11.910;2023-04-03T14:20:18;7.15;;;1.23;;
49962;SDS011;36180;57.678;11.910;2023-04-03T14:22:47;3.03;;;0.93;;
49962;SDS011;36180;57.678;11.910;2023-04-03T14:25:15;5.32;;;0.70;;
49962;SDS011;36180;57.678;11.910;2023-04-03T14:27:43;5.15;;;1.00;;
49962;SDS011;36180;57.678;11.910;2023-04-03T14:30:13;3.22;;;0.70;;
49962;SDS011;36180;57.678;11.910;2023-04-03T14:32:43;3.00;;;0.77;;
49962;SDS011;36180;57.678;11.910;2023-04-03T14:35:10;4.72;;;1.15;;
49962;SDS011;36180;57.678;11.910;2023-04-03T14:37:37;4.15;;;1.02;;
49962;SDS011;36180;57.678;11.910;2023-04-03T14:40:06;5.13;;;1.13;;
49962;SDS011;36180;57.678;11.910;2023-04-03T14:42:36;1.73;;;0.90;;
49962;SDS011;36180;57.678;11.910;2023-04-03T14:45:04;6.32;;;1.30;;
49962;SDS011;36180;57.678;11.910;2023-04-03T14:47:33;1.63;;;0.90;;
49962;SDS011;36180;57.678;11.910;2023-04-03T14:50:06;6.70;;;1.02;;
49962;SDS011;36180;57.678;11.910;2023-04-03T14:52:34;3.55;;;1.00;;
49962;SDS011;36180;57.678;11.910;2023-04-03T14:55:03;6.75;;;1.30;;
49962;SDS011;36180;57.678;11.910;2023-04-03T14:57:31;5.10;;;1.10;;
49962;SDS011;36180;57.678;11.910;2023-04-03T14:59:59;4.82;;;1.45;;
49962;SDS011;36180;57.678;11.910;2023-04-03T15:02:29;4.47;;;1.00;;
49962;SDS011;36180;57.678;11.910;2023-04-03T15:04:58;6.05;;;1.25;;
49962;SDS011;36180;57.678;11.910;2023-04-03T15:07:27;4.07;;;1.10;;
49962;SDS011;36180;57.678;11.910;2023-04-03T15:09:55;3.33;;;0.95;;
49962;SDS011;36180;57.678;11.910;2023-04-03T15:12:22;3.08;;;0.90;;
49962;SDS011;36180;57.678;11.910;2023-04-03T15:14:49;7.45;;;0.70;;